createdAt,value
2022-08-05T00:01:28.544Z,150953.59
2022-08-05T00:06:33.503Z,150943.22
2022-08-05T00:11:49.296Z,150900.44
2022-08-05T00:17:01.645Z,150886.19
2022-08-05T00:22:05.811Z,150904.31
2022-08-05T00:27:10.399Z,150879.69
2022-08-05T00:32:18.906Z,150884.84
2022-08-05T00:37:22.442Z,150870.63
2022-08-05T00:42:32.518Z,150862.81
2022-08-05T00:47:53.350Z,150862.81
2022-08-05T00:53:01.144Z,150869.31
2022-08-05T00:58:05.159Z,150875.81
2022-08-05T01:03:10.560Z,150868.03
2022-08-05T01:08:40.697Z,150851.16
2022-08-05T01:13:57.454Z,150823.94
2022-08-05T01:19:14.326Z,150809.63
2022-08-05T01:24:37.240Z,150803.19
2022-08-05T01:29:48.160Z,150792.81
2022-08-05T01:34:56.127Z,150774.66
2022-08-05T01:40:02.151Z,150779.88
2022-08-05T01:45:09.163Z,150779.88
2022-08-05T01:50:28.785Z,150774.66
2022-08-05T01:55:36.451Z,150750.06
2022-08-05T02:00:45.380Z,150730.63
2022-08-05T02:05:53.475Z,150707.31
2022-08-05T02:11:06.351Z,150702.16
2022-08-05T02:16:18.266Z,150695.66
2022-08-05T02:21:30.371Z,150693.06
2022-08-05T02:26:39.762Z,150712.50
2022-08-05T02:31:59.176Z,150661.97
2022-08-05T02:37:11.072Z,150637.38
2022-08-05T02:42:25.694Z,150647.75
2022-08-05T02:47:58.499Z,150633.47
2022-08-05T02:52:58.676Z,150632.19
2022-08-05T02:58:11.604Z,150608.88
2022-08-05T03:03:20.134Z,150575.16
2022-08-05T03:08:29.836Z,150575.16
2022-08-05T03:13:50.998Z,150577.72
2022-08-05T03:18:58.225Z,150546.66
2022-08-05T03:24:02.417Z,150536.28
2022-08-05T03:29:06.265Z,150494.91
2022-08-05T03:34:17.515Z,150557.00
2022-08-05T03:39:27.181Z,150520.78
2022-08-05T03:44:31.465Z,150511.69
2022-08-05T03:49:51.636Z,150463.81
2022-08-05T03:56:03.793Z,150487.13
2022-08-05T04:00:30.006Z,150490.97
2022-08-05T04:05:37.263Z,150541.50
2022-08-05T04:10:45.426Z,150575.16
2022-08-05T04:15:52.784Z,150563.50
2022-08-05T04:21:10.879Z,150593.34
2022-08-05T04:26:15.800Z,150601.09
2022-08-05T04:31:21.086Z,150590.72
2022-08-05T04:36:45.930Z,150601.09
2022-08-05T04:41:50.968Z,150619.22
2022-08-05T04:46:54.670Z,150624.38
2022-08-05T04:52:00.381Z,150664.56
2022-08-05T04:57:04.150Z,150674.91
2022-08-05T05:02:36.766Z,150734.53
2022-08-05T05:07:35.589Z,150813.56
2022-08-05T05:12:39.272Z,150870.63
2022-08-05T05:17:56.485Z,150935.41
2022-08-05T05:23:08.169Z,151032.66
2022-08-05T05:28:12.812Z,151071.63
2022-08-05T05:33:17.430Z,151088.47
2022-08-05T05:38:27.589Z,151139.06
2022-08-05T05:43:58.311Z,151153.31
2022-08-05T05:48:54.507Z,151240.22
2022-08-05T05:54:00.091Z,151332.38
2022-08-05T05:59:05.345Z,151379.13
2022-08-05T06:04:12.203Z,151586.88
2022-08-05T06:09:25.703Z,152366.97
2022-08-05T06:14:40.262Z,153318.28
2022-08-05T06:19:43.776Z,153263.47
2022-08-05T06:25:01.441Z,153814.38
2022-08-05T06:30:27.409Z,154241.72
2022-08-05T06:36:07.270Z,154699.53
2022-08-05T06:40:56.306Z,155115.97
2022-08-05T06:46:07.309Z,155202.41
2022-08-05T06:51:22.706Z,155573.38
2022-08-05T06:56:29.452Z,155792.41
2022-08-05T07:01:33.364Z,155976.06
2022-08-05T07:06:37.414Z,156014.16
2022-08-05T07:11:43.773Z,156217.59
2022-08-05T07:17:59.331Z,156112.59
2022-08-05T07:22:28.185Z,156239.91
2022-08-05T07:27:57.970Z,156510.44
2022-08-05T07:32:57.689Z,155901.25
2022-08-05T07:38:01.019Z,155635.00
2022-08-05T07:43:20.277Z,155953.72
2022-08-05T07:49:00.829Z,156313.47
2022-08-05T07:53:50.225Z,156283.22
2022-08-05T07:58:58.775Z,156383.03
2022-08-05T08:04:03.173Z,156171.63
2022-08-05T08:09:07.612Z,156524.91
2022-08-05T08:14:12.424Z,156605.00
2022-08-05T08:20:23.382Z,156635.28
2022-08-05T08:24:51.420Z,156259.59
2022-08-05T08:30:05.713Z,156560.38
2022-08-05T08:35:21.042Z,156341.00
2022-08-05T08:40:33.472Z,156413.28
2022-08-05T08:45:39.222Z,156362.00
2022-08-05T08:51:23.189Z,156318.69
2022-08-05T08:56:09.119Z,156520.94
2022-08-05T09:01:16.206Z,155951.13
2022-08-05T09:06:21.357Z,155844.88
2022-08-05T09:11:50.806Z,155539.28
2022-08-05T09:16:58.688Z,155499.97
2022-08-05T09:22:22.972Z,155552.38
2022-08-05T09:28:04.633Z,154983.69
2022-08-05T09:33:02.727Z,154787.25
2022-08-05T09:38:16.773Z,154897.22
2022-08-05T09:43:28.132Z,154740.16
2022-08-05T09:48:55.294Z,154593.59
2022-08-05T09:54:11.543Z,154737.56
2022-08-05T09:59:18.192Z,154716.56
2022-08-05T10:04:38.342Z,154905.09
2022-08-05T10:10:14.238Z,154983.69
2022-08-05T10:15:23.816Z,154958.78
2022-08-05T10:20:31.263Z,154833.03
2022-08-05T10:25:36.924Z,154789.84
2022-08-05T10:31:20.969Z,155138.22
2022-08-05T10:36:07.065Z,155085.78
2022-08-05T10:41:23.239Z,155080.56
2022-08-05T10:46:44.964Z,155007.25
2022-08-05T10:51:59.910Z,154970.56
2022-08-05T10:57:03.958Z,154713.97
2022-08-05T11:02:14.503Z,154792.50
2022-08-05T11:08:02.564Z,154822.56
2022-08-05T11:13:01.155Z,155108.06
2022-08-05T11:18:11.659Z,154949.59
2022-08-05T11:24:02.547Z,155012.50
2022-08-05T11:29:06.829Z,155305.91
2022-08-05T11:34:22.511Z,155558.91
2022-08-05T11:39:55.391Z,155586.47
2022-08-05T11:45:23.247Z,155114.66
2022-08-05T11:50:30.494Z,155077.97
2022-08-05T11:55:36.223Z,155239.13
2022-08-05T12:00:41.603Z,155002.03
2022-08-05T12:05:47.925Z,155181.44
2022-08-05T12:10:53.967Z,155049.16
2022-08-05T12:15:58.932Z,154975.75
2022-08-05T12:21:12.844Z,154890.72
2022-08-05T12:26:19.942Z,155011.19
2022-08-05T12:31:33.604Z,155030.81
2022-08-05T12:36:48.337Z,154990.25
2022-08-05T12:41:59.131Z,155063.53
2022-08-05T12:47:02.804Z,155021.69
2022-08-05T12:52:23.873Z,155074.00
2022-08-05T12:58:38.785Z,155414.72
2022-08-05T13:03:03.145Z,155617.97
2022-08-05T13:08:10.183Z,155620.59
2022-08-05T13:14:06.515Z,156098.13
2022-08-05T13:18:52.281Z,156737.72
2022-08-05T13:23:58.765Z,156442.19
2022-08-05T13:29:05.185Z,156716.69
2022-08-05T13:34:22.647Z,156665.50
2022-08-05T13:40:16.358Z,156833.69
2022-08-05T13:44:54.537Z,156800.84
2022-08-05T13:49:59.269Z,156639.19
2022-08-05T13:55:02.575Z,156289.78
2022-08-05T14:00:14.072Z,156187.41
2022-08-05T14:05:29.192Z,156510.44
2022-08-05T14:10:34.863Z,156716.69
2022-08-05T14:16:06.276Z,156766.69
2022-08-05T14:22:07.803Z,156557.75
2022-08-05T14:26:37.026Z,156531.50
2022-08-05T14:32:03.703Z,156987.50
2022-08-05T14:37:09.484Z,156828.44
2022-08-05T14:42:21.001Z,156266.19
2022-08-05T14:47:58.455Z,156430.38
2022-08-05T14:52:53.441Z,156113.91
2022-08-05T14:58:01.258Z,156392.22
2022-08-05T15:03:16.132Z,156245.19
2022-08-05T15:08:57.749Z,156175.53
2022-08-05T15:13:46.533Z,155854.06
2022-08-05T15:18:55.089Z,155739.94
2022-08-05T15:23:58.498Z,156148.00
2022-08-05T15:29:02.469Z,155938.00
2022-08-05T15:34:32.514Z,155743.84
2022-08-05T15:40:58.762Z,155948.50
2022-08-05T15:44:55.076Z,155691.34
2022-08-05T15:49:59.825Z,155825.19
2022-08-05T15:55:03.789Z,155284.97
2022-08-05T16:00:09.618Z,154855.34
2022-08-05T16:05:16.139Z,154661.63
2022-08-05T16:10:23.320Z,154573.91
2022-08-05T16:15:32.775Z,154549.09
2022-08-05T16:20:38.806Z,154605.38
2022-08-05T16:25:42.492Z,154543.81
2022-08-05T16:30:48.370Z,154470.56
2022-08-05T16:35:55.551Z,154467.97
2022-08-05T16:41:02.405Z,154335.88
2022-08-05T16:46:25.657Z,154347.63
2022-08-05T16:51:42.811Z,154283.50
2022-08-05T16:56:53.829Z,154352.88
2022-08-05T17:01:57.871Z,154305.72
2022-08-05T17:07:11.272Z,154291.38
2022-08-05T17:12:15.091Z,154254.78
2022-08-05T17:17:19.708Z,154206.41
2022-08-05T17:22:27.933Z,154155.41
2022-08-05T17:27:33.882Z,154143.66
2022-08-05T17:32:37.991Z,154129.25
2022-08-05T17:37:48.469Z,154069.16
2022-08-05T17:42:53.518Z,154041.72
2022-08-05T17:47:57.131Z,153965.88
2022-08-05T17:53:04.649Z,153858.78
2022-08-05T17:58:12.665Z,153857.47
2022-08-05T18:03:58.376Z,153749.09
2022-08-05T18:08:46.228Z,153670.69
2022-08-05T18:13:56.069Z,153608.06
2022-08-05T18:18:59.474Z,153542.75
2022-08-05T18:24:04.464Z,153508.84
2022-08-05T18:29:10.224Z,153401.78
2022-08-05T18:34:13.813Z,153317.00
2022-08-05T18:39:41.737Z,153305.25
2022-08-05T18:44:49.294Z,153249.13
2022-08-05T18:50:16.278Z,153173.50
2022-08-05T18:55:22.221Z,153139.59
2022-08-05T19:00:28.892Z,153065.25
2022-08-05T19:06:11.889Z,153060.06
2022-08-05T19:11:04.742Z,153002.66
2022-08-05T19:16:25.466Z,152954.44
2022-08-05T19:21:34.661Z,152933.56
2022-08-05T19:26:54.314Z,152940.09
2022-08-05T19:31:58.978Z,152927.09
2022-08-05T19:37:02.333Z,152945.28
2022-08-05T19:42:09.303Z,152916.66
2022-08-05T19:47:16.823Z,152889.28
2022-08-05T19:52:30.621Z,152858.00
2022-08-05T19:57:49.319Z,152801.97
2022-08-05T20:02:59.917Z,152778.50
2022-08-05T20:08:03.235Z,152781.09
2022-08-05T20:13:09.273Z,152765.47
2022-08-05T20:18:32.905Z,152753.75
2022-08-05T20:23:51.181Z,152731.63
2022-08-05T20:29:00.646Z,152715.97
2022-08-05T20:34:04.389Z,152713.38
2022-08-05T20:39:07.732Z,152692.53
2022-08-05T20:44:29.612Z,152648.25
2022-08-05T20:49:39.605Z,152635.25
2022-08-05T20:55:54.294Z,152626.06
2022-08-05T21:00:40.637Z,152611.75
2022-08-05T21:05:47.900Z,152560.97
2022-08-05T21:10:58.356Z,152549.25
2022-08-05T21:16:03.571Z,152546.66
2022-08-05T21:21:07.538Z,152499.78
2022-08-05T21:26:15.244Z,152468.56
2022-08-05T21:31:20.474Z,152441.16
2022-08-05T21:36:30.062Z,152429.47
2022-08-05T21:41:36.491Z,152366.97
2022-08-05T21:46:41.781Z,152366.97
2022-08-05T21:52:16.658Z,152330.56
2022-08-05T21:57:30.743Z,152325.38
2022-08-05T22:02:34.935Z,152286.34
2022-08-05T22:07:40.420Z,152245.94
2022-08-05T22:14:06.459Z,152238.19
2022-08-05T22:18:27.136Z,152238.19
2022-08-05T22:24:02.229Z,152203.03
2022-08-05T22:29:07.842Z,152182.19
2022-08-05T22:34:25.480Z,152145.81
2022-08-05T22:39:33.863Z,152104.19
2022-08-05T22:44:37.476Z,152099.00
2022-08-05T22:50:21.509Z,152093.78
2022-08-05T22:55:18.916Z,152105.47
2022-08-05T23:00:24.817Z,152101.59
2022-08-05T23:05:31.308Z,152088.59
2022-08-05T23:10:39.389Z,152067.75
2022-08-05T23:15:42.709Z,152083.31
2022-08-05T23:20:47.638Z,152071.63
2022-08-05T23:25:55.445Z,152037.81
2022-08-05T23:31:15.853Z,151959.84
2022-08-05T23:36:28.245Z,151971.53
2022-08-05T23:41:34.257Z,151961.13
2022-08-05T23:46:40.765Z,151941.63
2022-08-05T23:52:05.519Z,151937.75
2022-08-05T23:57:10.400Z,152014.44
